Time;durP1;ratioP1;P1;durP2;ratioP2;P2;SDS_P1;SDS_P2;PMS_P1;PMS_P2;Temp;Humidity;BMP_temperature;BMP_pressure;BME280_temperature;BME280_humidity;BME280_pressure;Samples;Min_cycle;Max_cycle;Signal;HPM_P1;HPM_P2
2023/02/01 00:01:14;;;;;;;22.15;10.57;;;;;;;3.29;100.00;99809.75;5039668;28;20024;-60
2023/02/01 00:03:39;;;;;;;24.23;11.40;;;;;;;3.31;100.00;99802.44;5043047;28;20033;-59
2023/02/01 00:06:05;;;;;;;23.15;10.60;;;;;;;3.25;100.00;99804.00;5045576;28;20036;-59
2023/02/01 00:08:30;;;;;;;23.27;10.70;;;;;;;3.24;100.00;99792.59;5037483;28;20036;-59
2023/02/01 00:11:06;;;;;;;21.58;10.82;;;;;;;3.21;100.00;99784.16;5035155;28;20029;-59
2023/02/01 00:13:32;;;;;;;24.02;10.02;;;;;;;3.21;100.00;99782.34;5037893;28;20181;-59
2023/02/01 00:16:08;;;;;;;23.77;11.05;;;;;;;3.15;100.00;99783.06;5049361;28;20120;-59
2023/02/01 00:18:34;;;;;;;25.88;11.77;;;;;;;3.16;100.00;99800.59;5040284;28;20031;-59
2023/02/01 00:20:59;;;;;;;24.90;11.85;;;;;;;3.15;100.00;99798.97;5036869;28;20060;-59
2023/02/01 00:23:25;;;;;;;20.80;9.85;;;;;;;3.22;100.00;99797.25;5047465;28;20025;-59
2023/02/01 00:25:50;;;;;;;32.75;12.82;;;;;;;3.24;100.00;99787.28;5035698;28;20032;-60
2023/02/01 00:28:16;;;;;;;26.23;12.30;;;;;;;3.30;100.00;99780.44;5044670;28;20098;-61
2023/02/01 00:30:41;;;;;;;28.10;14.18;;;;;;;3.34;100.00;99791.47;5042671;28;20097;-58
2023/02/01 00:33:07;;;;;;;32.65;14.13;;;;;;;3.39;100.00;99789.13;5044271;28;20775;-60
2023/02/01 00:35:36;;;;;;;32.53;15.07;;;;;;;3.39;100.00;99800.53;5031973;28;20025;-60
2023/02/01 00:38:01;;;;;;;36.50;14.93;;;;;;;3.38;100.00;99790.94;5040169;28;20024;-60
2023/02/01 00:40:26;;;;;;;36.28;15.95;;;;;;;3.40;100.00;99791.59;5039448;28;20527;-60
2023/02/01 00:42:52;;;;;;;36.53;15.60;;;;;;;3.39;100.00;99795.22;5040391;28;20375;-60
2023/02/01 00:45:18;;;;;;;31.85;14.63;;;;;;;3.40;100.00;99793.44;5035591;28;20033;-60
2023/02/01 00:47:43;;;;;;;35.65;15.43;;;;;;;3.46;100.00;99795.34;5048301;28;20412;-60
2023/02/01 00:50:09;;;;;;;32.92;14.57;;;;;;;3.53;100.00;99790.94;5045926;28;20017;-60
2023/02/01 00:52:35;;;;;;;31.02;14.77;;;;;;;3.54;100.00;99797.88;5047108;28;20174;-59
2023/02/01 00:55:00;;;;;;;40.72;16.75;;;;;;;3.52;100.00;99797.28;5033878;28;20523;-59
2023/02/01 00:57:26;;;;;;;37.78;16.65;;;;;;;3.51;100.00;99798.25;5040573;28;20537;-59
2023/02/01 00:59:51;;;;;;;34.50;16.13;;;;;;;3.51;100.00;99787.66;5041224;28;20108;-59
2023/02/01 01:02:17;;;;;;;35.38;15.35;;;;;;;3.57;100.00;99781.63;5045376;28;20036;-61
2023/02/01 01:04:42;;;;;;;41.35;16.92;;;;;;;3.51;100.00;99785.00;5040899;28;20112;-60
2023/02/01 01:07:07;;;;;;;38.85;17.85;;;;;;;3.49;100.00;99784.34;5041630;28;20128;-59
2023/02/01 01:09:34;;;;;;;37.22;16.15;;;;;;;3.52;100.00;99777.88;5050493;28;20044;-59
2023/02/01 01:12:02;;;;;;;45.17;17.17;;;;;;;3.48;100.00;99782.72;5044149;28;20032;-59
2023/02/01 01:14:28;;;;;;;44.03;17.90;;;;;;;3.49;100.00;99779.06;5045607;28;20033;-59
2023/02/01 01:16:54;;;;;;;37.80;16.20;;;;;;;3.53;100.00;99784.84;5037379;28;20049;-59
2023/02/01 01:19:19;;;;;;;36.90;16.02;;;;;;;3.51;100.00;99784.19;5070667;28;20104;-60
2023/02/01 01:21:45;;;;;;;37.13;15.80;;;;;;;3.56;100.00;99787.13;5047686;28;20028;-59
2023/02/01 01:24:10;;;;;;;33.35;13.85;;;;;;;3.56;100.00;99787.94;5051793;28;20032;-60
2023/02/01 01:26:36;;;;;;;35.58;14.73;;;;;;;3.54;100.00;99797.06;5050539;28;20459;-60
2023/02/01 01:29:01;;;;;;;32.20;14.88;;;;;;;3.55;100.00;99790.78;5045056;28;20032;-60
2023/02/01 01:31:27;;;;;;;27.10;13.60;;;;;;;3.69;100.00;99784.63;5040717;28;20497;-60
2023/02/01 01:33:53;;;;;;;36.40;12.90;;;;;;;3.74;100.00;99782.25;5045149;28;20116;-58
2023/02/01 01:36:19;;;;;;;36.33;13.65;;;;;;;3.70;100.00;99780.16;5042225;28;20020;-60
2023/02/01 01:38:45;;;;;;;24.63;11.35;;;;;;;3.73;100.00;99772.66;5039555;28;20021;-60
2023/02/01 01:41:16;;;;;;;24.55;12.05;;;;;;;3.69;100.00;99771.38;5040335;28;20028;-60
2023/02/01 01:44:01;;;;;;;28.88;12.88;;;;;;;3.69;100.00;99755.47;5046069;28;20036;-60
2023/02/01 01:46:37;;;;;;;23.83;10.93;;;;;;;3.67;100.00;99749.56;5037843;28;20041;-61
2023/02/01 01:49:23;;;;;;;24.10;10.18;;;;;;;3.66;100.00;99747.88;5041865;28;20085;-59
2023/02/01 01:51:53;;;;;;;30.77;12.00;;;;;;;3.62;100.00;99750.09;5046023;28;20053;-60
2023/02/01 01:54:19;;;;;;;28.35;11.38;;;;;;;3.61;100.00;99737.84;5076059;28;20059;-59
2023/02/01 01:56:47;;;;;;;27.05;10.70;;;;;;;3.56;100.00;99745.53;5042448;28;20117;-59
2023/02/01 01:59:12;;;;;;;28.30;11.48;;;;;;;3.56;100.00;99742.88;5072943;28;20017;-59
2023/02/01 02:01:38;;;;;;;23.33;10.68;;;;;;;3.58;100.00;99735.56;5042054;28;20028;-58
2023/02/01 02:04:03;;;;;;;26.95;10.02;;;;;;;3.54;100.00;99739.56;5033607;28;20035;-58
2023/02/01 02:06:50;;;;;;;19.05;7.75;;;;;;;3.63;100.00;99740.31;5043333;28;20143;-59
2023/02/01 02:09:15;;;;;;;27.38;9.80;;;;;;;3.66;100.00;99751.34;5028292;28;20483;-58
2023/02/01 02:11:40;;;;;;;27.98;9.85;;;;;;;3.72;100.00;99756.94;5040442;28;20059;-58
2023/02/01 02:14:08;;;;;;;26.67;10.40;;;;;;;3.78;100.00;99758.84;5047935;28;20062;-60
2023/02/01 02:16:55;;;;;;;28.50;10.02;;;;;;;3.81;100.00;99763.78;5038947;28;20028;-60
2023/02/01 02:19:43;;;;;;;27.45;9.02;;;;;;;3.83;100.00;99769.72;5044984;28;20105;-60
2023/02/01 02:22:13;;;;;;;25.35;9.93;;;;;;;3.81;100.00;99771.72;5045050;28;20025;-59
2023/02/01 02:25:01;;;;;;;27.20;9.48;;;;;;;3.82;100.00;99776.00;5045234;28;20114;-59
2023/02/01 02:27:44;;;;;;;22.20;8.90;;;;;;;3.79;100.00;99763.13;5038510;28;20443;-60
2023/02/01 02:30:22;;;;;;;20.60;8.82;;;;;;;3.72;100.00;99764.88;5046515;28;20037;-60
2023/02/01 02:33:24;;;;;;;23.00;8.55;;;;;;;3.70;100.00;99758.97;5037144;28;20329;-60
2023/02/01 02:36:09;;;;;;;29.25;9.35;;;;;;;3.68;100.00;99757.31;5051239;28;20079;-60
2023/02/01 02:38:47;;;;;;;22.65;8.52;;;;;;;3.62;100.00;99751.91;5040624;28;20958;-60
2023/02/01 02:47:27;;;;;;;17.55;7.25;;;;;;;3.61;100.00;99737.00;5039200;28;20080;-60
2023/02/01 02:55:47;;;;;;;28.75;8.32;;;;;;;3.51;100.00;99745.25;5025498;28;20052;-59
2023/02/01 03:06:25;;;;;;;17.45;7.75;;;;;;;3.60;100.00;99736.19;5024488;28;20132;-60
2023/02/01 03:08:53;;;;;;;16.67;6.90;;;;;;;3.44;100.00;99744.34;5034720;28;20046;-59
2023/02/01 03:11:19;;;;;;;27.80;7.72;;;;;;;3.43;100.00;99745.34;5044665;28;20064;-59
2023/02/01 03:13:57;;;;;;;30.95;8.25;;;;;;;3.38;100.00;99750.38;5038086;28;20059;-59
2023/02/01 03:16:28;;;;;;;21.02;6.60;;;;;;;3.37;100.00;99754.03;5036322;28;20447;-59
2023/02/01 03:19:09;;;;;;;25.50;8.27;;;;;;;3.38;100.00;99740.59;5037841;28;20041;-60
2023/02/01 03:21:53;;;;;;;30.55;7.10;;;;;;;3.37;100.00;99727.53;5040971;28;20388;-59
2023/02/01 03:24:35;;;;;;;27.15;8.02;;;;;;;3.37;100.00;99727.53;5043584;28;20039;-59
2023/02/01 03:27:14;;;;;;;18.27;7.10;;;;;;;3.38;100.00;99726.53;5042982;28;20147;-59
2023/02/01 03:30:17;;;;;;;14.82;6.70;;;;;;;3.38;100.00;99729.19;5042725;28;20060;-59
2023/02/01 03:32:58;;;;;;;32.60;7.75;;;;;;;3.39;100.00;99731.63;5023834;28;20407;-59
2023/02/01 03:35:30;;;;;;;27.50;7.22;;;;;;;3.45;100.00;99735.41;5041899;28;20049;-59
2023/02/01 03:38:01;;;;;;;27.10;7.75;;;;;;;3.49;100.00;99723.41;5043444;28;20029;-59
2023/02/01 03:40:26;;;;;;;16.67;5.93;;;;;;;3.52;100.00;99724.88;5040843;28;20364;-59
2023/02/01 03:42:54;;;;;;;25.20;6.78;;;;;;;3.43;100.00;99719.66;5020506;28;20056;-59
2023/02/01 03:45:27;;;;;;;25.88;8.38;;;;;;;3.36;100.00;99715.28;5038398;28;20459;-60
2023/02/01 03:47:55;;;;;;;30.00;7.53;;;;;;;3.30;100.00;99716.03;5026669;28;20032;-59
2023/02/01 03:50:22;;;;;;;14.43;5.00;;;;;;;3.33;100.00;99711.19;5039625;28;20063;-59
2023/02/01 03:52:54;;;;;;;17.52;5.68;;;;;;;3.31;100.00;99715.84;5065376;28;20025;-59
2023/02/01 03:55:22;;;;;;;22.73;7.63;;;;;;;3.29;100.00;99709.06;5024992;28;20859;-59
2023/02/01 03:58:03;;;;;;;16.27;5.57;;;;;;;3.31;100.00;99712.38;5024765;28;20061;-59
2023/02/01 04:00:29;;;;;;;25.95;6.85;;;;;;;3.39;100.00;99718.38;5046049;28;20032;-60
2023/02/01 04:02:54;;;;;;;23.30;6.90;;;;;;;3.31;100.00;99723.78;5042009;28;20032;-60
2023/02/01 04:05:20;;;;;;;24.92;7.30;;;;;;;3.28;100.00;99721.50;5032908;28;20381;-60
2023/02/01 04:07:45;;;;;;;31.98;8.15;;;;;;;3.36;100.00;99721.41;5036597;28;20029;-60
2023/02/01 04:10:11;;;;;;;29.85;8.60;;;;;;;3.31;100.00;99717.66;5042279;28;20677;-60
2023/02/01 04:12:36;;;;;;;28.33;7.90;;;;;;;3.36;100.00;99717.94;5038053;28;20444;-60
2023/02/01 04:15:03;;;;;;;20.85;6.75;;;;;;;3.37;100.00;99725.72;5035217;28;20031;-60
2023/02/01 04:17:28;;;;;;;22.58;8.13;;;;;;;3.25;100.00;99724.53;5045264;28;20115;-60
2023/02/01 04:19:54;;;;;;;24.05;7.40;;;;;;;3.27;100.00;99722.53;5042419;28;20022;-60
2023/02/01 04:22:19;;;;;;;14.18;6.45;;;;;;;3.29;100.00;99714.38;5041739;28;20076;-58
2023/02/01 04:24:44;;;;;;;19.95;9.23;;;;;;;3.18;100.00;99718.31;5043292;28;20056;-59
2023/02/01 04:27:10;;;;;;;26.80;8.45;;;;;;;3.19;100.00;99718.09;5052879;28;20026;-58
2023/02/01 04:29:35;;;;;;;19.42;7.88;;;;;;;3.23;100.00;99714.09;5048465;28;20752;-58
2023/02/01 04:32:01;;;;;;;37.70;9.63;;;;;;;3.21;100.00;99718.75;5039569;28;20026;-58
2023/02/01 04:34:26;;;;;;;22.85;8.73;;;;;;;3.19;100.00;99712.81;5053009;28;20240;-58
2023/02/01 04:36:51;;;;;;;25.05;8.60;;;;;;;3.27;100.00;99722.53;5044054;28;20030;-58
2023/02/01 04:39:17;;;;;;;34.20;10.40;;;;;;;3.21;100.00;99731.19;5052500;28;20555;-58
2023/02/01 04:41:42;;;;;;;25.58;7.57;;;;;;;3.25;100.00;99721.88;5047600;28;20060;-58
2023/02/01 04:44:12;;;;;;;17.30;6.03;;;;;;;3.32;100.00;99729.91;5048403;28;20025;-58
2023/02/01 04:46:38;;;;;;;25.95;9.25;;;;;;;3.32;100.00;99732.53;5027640;28;20376;-58
2023/02/01 04:49:03;;;;;;;31.30;8.70;;;;;;;3.42;100.00;99725.13;5037614;28;20032;-58
2023/02/01 04:51:30;;;;;;;43.35;8.98;;;;;;;3.46;100.00;99721.13;5040168;28;20039;-60
2023/02/01 04:53:55;;;;;;;32.17;8.35;;;;;;;3.47;100.00;99728.09;5035445;28;20076;-58
2023/02/01 04:56:21;;;;;;;50.20;8.75;;;;;;;3.57;100.00;99728.63;5054187;28;20025;-58
2023/02/01 04:58:46;;;;;;;34.17;7.97;;;;;;;3.60;100.00;99732.72;5041939;28;20024;-58
2023/02/01 05:01:12;;;;;;;37.67;9.13;;;;;;;3.45;100.00;99730.09;5041739;28;20435;-58
2023/02/01 05:03:37;;;;;;;30.98;8.10;;;;;;;3.46;100.00;99734.38;5042654;28;20052;-58
2023/02/01 05:06:04;;;;;;;41.67;8.65;;;;;;;3.41;100.00;99736.75;5043269;28;20475;-59
2023/02/01 05:08:30;;;;;;;28.13;8.68;;;;;;;3.26;100.00;99735.94;5044605;28;20079;-59
2023/02/01 05:10:55;;;;;;;40.70;8.98;;;;;;;3.26;100.00;99736.75;5047602;28;20486;-60
2023/02/01 05:16:05;;;;;;;39.72;8.48;;;;;;;3.32;100.00;99730.75;5048795;28;20051;-61
2023/02/01 05:18:30;;;;;;;40.35;9.68;;;;;;;3.25;100.00;99729.81;5049092;28;20468;-59
2023/02/01 05:20:56;;;;;;;32.70;8.98;;;;;;;3.17;100.00;99732.53;5044698;28;20025;-59
2023/02/01 05:23:21;;;;;;;62.47;10.25;;;;;;;3.17;100.00;99733.38;5052707;28;20027;-59
2023/02/01 05:25:47;;;;;;;48.55;12.55;;;;;;;3.24;100.00;99729.00;5047440;28;20032;-59
2023/02/01 05:28:12;;;;;;;47.63;10.07;;;;;;;3.21;100.00;99721.41;5048051;28;20018;-59
2023/02/01 05:30:38;;;;;;;37.47;8.23;;;;;;;3.33;100.00;99726.25;5047359;28;20106;-59
2023/02/01 05:33:03;;;;;;;51.70;11.13;;;;;;;3.13;100.00;99710.91;5042452;28;20029;-59
2023/02/01 05:35:29;;;;;;;45.75;11.82;;;;;;;3.03;100.00;99710.34;5045485;28;20037;-60
2023/02/01 05:37:54;;;;;;;28.63;8.43;;;;;;;3.07;100.00;99711.66;5046285;28;20535;-59
2023/02/01 05:40:20;;;;;;;44.47;13.55;;;;;;;3.13;100.00;99716.22;5041218;28;20029;-60
2023/02/01 05:42:45;;;;;;;44.28;11.32;;;;;;;3.10;100.00;99705.97;5047333;28;20476;-59
2023/02/01 05:45:10;;;;;;;47.30;9.68;;;;;;;3.03;100.00;99705.06;5045580;28;20450;-60
2023/02/01 05:47:36;;;;;;;31.52;8.57;;;;;;;3.16;98.60;99707.06;5051338;28;20102;-59
2023/02/01 05:50:02;;;;;;;55.10;16.95;;;;;;;3.08;98.70;99705.34;5035328;28;21177;-59
2023/02/01 05:52:28;;;;;;;49.55;12.18;;;;;;;3.02;99.49;99701.59;5045096;28;20401;-59
2023/02/01 05:54:54;;;;;;;34.78;8.55;;;;;;;2.99;99.11;99704.59;5038977;28;20022;-59
2023/02/01 05:57:19;;;;;;;42.38;13.13;;;;;;;2.95;99.56;99705.16;5050903;28;20025;-58
2023/02/01 05:59:45;;;;;;;39.83;9.45;;;;;;;3.06;97.91;99707.34;5045124;28;20021;-59
2023/02/01 06:02:14;;;;;;;40.42;12.77;;;;;;;3.07;97.71;99726.69;5037432;28;20032;-58
2023/02/01 06:04:39;;;;;;;64.63;13.60;;;;;;;3.01;96.52;99718.47;5042014;28;20029;-58
2023/02/01 06:07:07;;;;;;;49.22;15.60;;;;;;;2.90;97.01;99720.75;5056283;28;20040;-58
2023/02/01 06:09:33;;;;;;;47.20;9.75;;;;;;;2.99;96.58;99723.13;5042496;28;20033;-58
2023/02/01 06:11:59;;;;;;;35.08;10.90;;;;;;;2.86;96.76;99717.63;5040791;28;20093;-58
2023/02/01 06:14:24;;;;;;;42.70;10.18;;;;;;;2.88;96.45;99720.13;5044981;28;20021;-60
2023/02/01 06:16:50;;;;;;;44.53;9.30;;;;;;;2.88;95.28;99720.13;5048798;28;20061;-61
2023/02/01 06:19:15;;;;;;;35.85;7.78;;;;;;;2.95;95.35;99713.09;5038014;28;20430;-59
2023/02/01 06:21:41;;;;;;;31.80;6.40;;;;;;;2.96;94.81;99704.13;5041236;28;20025;-59
2023/02/01 06:24:06;;;;;;;43.00;6.95;;;;;;;2.91;94.42;99706.50;5047933;28;20034;-58
2023/02/01 06:26:32;;;;;;;31.08;6.65;;;;;;;2.86;94.58;99698.28;5040333;28;20028;-58
2023/02/01 06:28:58;;;;;;;37.15;7.20;;;;;;;2.87;95.44;99700.75;5048126;28;20025;-58
2023/02/01 06:31:25;;;;;;;33.80;6.18;;;;;;;2.91;95.07;99693.28;5044992;28;20387;-58
2023/02/01 06:33:50;;;;;;;34.67;6.28;;;;;;;2.84;94.18;99690.50;5044761;28;20388;-58
2023/02/01 06:36:17;;;;;;;48.42;17.73;;;;;;;2.74;94.92;99698.72;5044666;28;20102;-58
2023/02/01 06:38:45;;;;;;;56.50;19.02;;;;;;;2.73;95.26;99693.63;5050209;28;20024;-62
2023/02/01 06:41:10;;;;;;;33.05;8.52;;;;;;;2.79;94.91;99699.00;5026289;28;20025;-58
2023/02/01 06:43:37;;;;;;;41.13;6.72;;;;;;;2.83;94.53;99688.06;5044857;28;20028;-58
2023/02/01 06:46:03;;;;;;;26.30;7.53;;;;;;;2.74;95.10;99692.59;5038461;28;20384;-58
2023/02/01 06:48:29;;;;;;;31.50;6.68;;;;;;;2.59;95.35;99706.63;5036119;28;20021;-58
2023/02/01 06:50:55;;;;;;;40.28;8.20;;;;;;;2.43;97.30;99690.91;5036213;28;20021;-58
2023/02/01 06:53:21;;;;;;;45.08;7.90;;;;;;;2.46;96.48;99697.66;5035319;28;20028;-59
2023/02/01 06:55:55;;;;;;;27.95;6.70;;;;;;;2.46;96.32;99700.31;5035563;28;20063;-58
2023/02/01 06:58:22;;;;;;;30.95;5.90;;;;;;;2.55;96.19;99702.69;5043895;28;20043;-58
2023/02/01 07:00:48;;;;;;;50.60;6.22;;;;;;;2.33;97.00;99707.00;5036579;28;20024;-58
2023/02/01 07:03:13;;;;;;;44.95;9.43;;;;;;;2.26;97.16;99707.91;5037139;28;20026;-58
2023/02/01 07:05:39;;;;;;;51.78;6.85;;;;;;;2.22;98.11;99714.53;5043986;28;20040;-58
2023/02/01 07:08:05;;;;;;;21.02;6.85;;;;;;;2.23;97.94;99724.94;5039763;28;20037;-60
2023/02/01 07:10:30;;;;;;;25.10;5.57;;;;;;;2.10;98.49;99719.44;5042145;28;20143;-59
2023/02/01 07:12:58;;;;;;;39.83;8.45;;;;;;;2.05;99.78;99724.41;5037448;28;20033;-58
2023/02/01 07:15:24;;;;;;;31.83;7.10;;;;;;;2.06;100.00;99726.88;5032490;28;20048;-58
2023/02/01 07:17:49;;;;;;;36.80;6.47;;;;;;;2.16;99.69;99730.09;5036358;28;20459;-58
2023/02/01 07:20:15;;;;;;;59.58;12.65;;;;;;;2.14;100.00;99740.03;5040381;28;20453;-58
2023/02/01 07:22:41;;;;;;;37.38;7.95;;;;;;;2.06;100.00;99749.84;5036799;28;20108;-58
2023/02/01 07:25:07;;;;;;;34.50;9.02;;;;;;;2.04;100.00;99757.94;5043890;28;20626;-58
2023/02/01 07:27:35;;;;;;;49.47;7.85;;;;;;;2.15;100.00;99764.69;5044069;28;20033;-58
2023/02/01 07:30:02;;;;;;;57.97;13.02;;;;;;;2.41;99.28;99758.22;5059101;28;20037;-58
2023/02/01 07:32:28;;;;;;;43.17;10.82;;;;;;;2.35;99.23;99762.41;5041124;28;20024;-58
2023/02/01 07:34:53;;;;;;;46.88;9.90;;;;;;;2.47;98.29;99760.16;5043482;28;20080;-58
2023/02/01 07:37:19;;;;;;;49.03;8.27;;;;;;;2.45;98.25;99748.94;5043006;28;20047;-58
2023/02/01 07:39:44;;;;;;;42.35;9.48;;;;;;;2.48;97.79;99748.59;5068511;28;20021;-58
2023/02/01 07:42:10;;;;;;;31.73;6.68;;;;;;;2.56;97.46;99746.69;5039559;28;20428;-58
2023/02/01 07:44:35;;;;;;;30.90;8.70;;;;;;;2.54;97.04;99742.56;5041955;28;20036;-58
2023/02/01 07:47:01;;;;;;;43.65;7.93;;;;;;;2.57;97.80;99753.63;5036656;28;20040;-59
2023/02/01 07:49:26;;;;;;;21.10;5.78;;;;;;;2.59;98.20;99753.44;5044420;28;20025;-60
2023/02/01 07:51:52;;;;;;;43.28;7.57;;;;;;;2.62;98.50;99758.41;5039619;28;20140;-59
2023/02/01 07:54:17;;;;;;;36.55;7.90;;;;;;;2.72;97.82;99766.06;5038973;28;20049;-58
2023/02/01 07:56:43;;;;;;;34.30;8.02;;;;;;;2.73;97.80;99776.50;5038230;28;20091;-58
2023/02/01 07:59:08;;;;;;;35.88;7.80;;;;;;;3.00;95.95;99783.03;5039894;28;20021;-58
2023/02/01 08:01:34;;;;;;;40.33;8.13;;;;;;;3.34;93.49;99781.69;5038377;28;20494;-59
2023/02/01 08:04:00;;;;;;;33.63;8.65;;;;;;;3.72;91.58;99788.75;5042765;28;20051;-58
2023/02/01 08:06:26;;;;;;;31.83;8.90;;;;;;;3.95;89.42;99789.47;5046155;28;20037;-60
2023/02/01 08:08:52;;;;;;;33.97;8.13;;;;;;;4.41;87.59;99788.31;5030011;28;20157;-59
2023/02/01 08:11:18;;;;;;;38.63;7.53;;;;;;;4.61;86.11;99789.34;5045175;28;20032;-59
2023/02/01 08:13:43;;;;;;;25.33;7.30;;;;;;;4.43;86.38;99803.06;5037076;28;20025;-59
2023/02/01 08:16:10;;;;;;;28.55;8.23;;;;;;;4.08;88.44;99800.22;5039693;28;20076;-59
2023/02/01 08:18:36;;;;;;;33.67;6.78;;;;;;;3.90;90.28;99794.50;5040441;28;20506;-59
2023/02/01 08:21:06;;;;;;;30.88;8.63;;;;;;;3.76;91.52;99805.94;5038633;28;20146;-59
2023/02/01 08:23:33;;;;;;;31.92;8.35;;;;;;;3.64;92.70;99800.25;5039556;28;20028;-59
2023/02/01 08:26:25;;;;;;;35.13;8.13;;;;;;;3.66;92.38;99801.72;5039276;28;20401;-59
2023/02/01 08:28:55;;;;;;;29.35;8.07;;;;;;;3.63;93.14;99788.84;5036754;28;20037;-59
2023/02/01 08:31:22;;;;;;;;;;;;;;;3.62;93.31;99804.91;5044657;28;20487;-59
2023/02/01 08:33:49;;;;;;;27.42;7.32;;;;;;;3.66;92.89;99793.78;5039819;28;19925;-59
2023/02/01 08:36:14;;;;;;;65.63;23.48;;;;;;;3.62;92.45;99810.22;5037793;28;20021;-59
2023/02/01 08:38:43;;;;;;;87.90;28.50;;;;;;;3.63;91.92;99820.66;5033549;28;20048;-59
2023/02/01 08:41:10;;;;;;;38.50;12.00;;;;;;;3.67;92.28;99821.94;5038826;28;20028;-58
2023/02/01 08:43:36;;;;;;;60.83;22.30;;;;;;;3.80;93.06;99815.19;5047673;28;20090;-59
2023/02/01 08:46:02;;;;;;;53.95;20.60;;;;;;;3.86;92.28;99809.94;5030627;28;20144;-58
2023/02/01 08:48:27;;;;;;;54.55;19.00;;;;;;;3.83;90.27;99817.44;5041873;28;20094;-59
2023/02/01 08:50:53;;;;;;;41.45;13.10;;;;;;;3.76;90.80;99805.94;5037240;28;20344;-58
2023/02/01 08:53:18;;;;;;;59.92;20.55;;;;;;;3.79;91.13;99813.50;5037015;28;20033;-60
2023/02/01 08:55:47;;;;;;;38.13;12.32;;;;;;;3.77;91.35;99802.25;5039625;28;20241;-61
2023/02/01 08:58:19;;;;;;;49.30;16.52;;;;;;;3.83;90.71;99814.81;5036288;28;20087;-60
2023/02/01 09:00:45;;;;;;;56.75;15.52;;;;;;;3.88;90.15;99809.75;5039119;28;20048;-60
2023/02/01 09:03:10;;;;;;;41.67;13.05;;;;;;;3.92;90.36;99808.41;5035987;28;20396;-58
2023/02/01 09:05:42;;;;;;;26.90;9.57;;;;;;;3.97;89.26;99819.28;5043242;28;20112;-59
2023/02/01 09:08:08;;;;;;;30.65;8.35;;;;;;;3.97;89.48;99824.59;5029759;28;20144;-59
2023/02/01 09:10:34;;;;;;;28.42;7.22;;;;;;;4.04;88.34;99820.19;5077481;28;20060;-60
2023/02/01 09:12:59;;;;;;;24.73;8.60;;;;;;;4.09;88.22;99825.75;5029067;28;20276;-59
2023/02/01 09:15:27;;;;;;;65.63;21.67;;;;;;;4.29;87.09;99828.63;5040599;28;20102;-58
2023/02/01 09:17:53;;;;;;;141.48;33.55;;;;;;;4.37;86.70;99840.97;5068295;28;20033;-59
2023/02/01 09:20:20;;;;;;;52.72;13.02;;;;;;;4.30;86.48;99829.47;5050234;28;20415;-59
2023/02/01 09:22:45;;;;;;;294.75;61.47;;;;;;;4.46;86.31;99837.19;5045006;28;20108;-59
2023/02/01 09:25:11;;;;;;;69.07;30.80;;;;;;;4.51;85.97;99848.06;5034182;28;20044;-59
2023/02/01 09:27:37;;;;;;;35.42;11.93;;;;;;;4.44;86.50;99846.34;5048457;28;20044;-60
2023/02/01 09:30:04;;;;;;;39.45;15.45;;;;;;;4.41;86.65;99846.72;5068426;28;20495;-59
2023/02/01 09:32:29;;;;;;;54.55;22.42;;;;;;;4.36;87.57;99855.25;5041918;28;20485;-60
2023/02/01 09:34:55;;;;;;;44.83;14.38;;;;;;;4.41;87.63;99847.53;5045220;28;20033;-58
2023/02/01 09:37:20;;;;;;;35.53;10.85;;;;;;;4.45;87.59;99843.50;5035510;28;20857;-59
2023/02/01 09:39:46;;;;;;;50.10;13.73;;;;;;;4.46;87.37;99866.38;5038206;28;20032;-59
2023/02/01 09:42:36;;;;;;;26.58;8.70;;;;;;;4.41;88.26;99855.50;5039283;28;20037;-59
2023/02/01 09:45:12;;;;;;;30.27;8.73;;;;;;;4.47;88.88;99856.59;5039545;28;20723;-59
2023/02/01 09:47:39;;;;;;;33.28;7.43;;;;;;;4.51;88.63;99855.19;5041599;28;20041;-59
2023/02/01 09:50:16;;;;;;;24.92;7.13;;;;;;;4.53;87.90;99850.53;5036383;28;20075;-60
2023/02/01 09:53:01;;;;;;;31.75;9.00;;;;;;;4.62;87.60;99848.56;5024082;28;20022;-58
2023/02/01 09:55:36;;;;;;;29.95;8.05;;;;;;;4.74;88.04;99855.88;5036227;28;20041;-57
2023/02/01 09:58:16;;;;;;;22.73;7.03;;;;;;;4.79;87.18;99842.00;5021811;28;20022;-58
2023/02/01 10:00:45;;;;;;;36.08;7.32;;;;;;;4.79;86.42;99842.00;5038937;28;20034;-58
2023/02/01 10:03:11;;;;;;;41.45;15.23;;;;;;;4.88;86.10;99851.50;5043631;28;20108;-60
2023/02/01 10:05:45;;;;;;;45.05;17.83;;;;;;;4.97;86.05;99850.38;5035690;28;20020;-60
2023/02/01 10:08:29;;;;;;;25.10;7.57;;;;;;;4.90;86.73;99852.13;5040700;28;20396;-59
2023/02/01 10:10:57;;;;;;;43.38;18.50;;;;;;;4.84;85.92;99855.56;5041185;28;20028;-58
2023/02/01 10:13:29;;;;;;;40.00;14.30;;;;;;;4.84;85.52;99844.94;5047995;28;20033;-60
2023/02/01 10:16:15;;;;;;;46.85;10.43;;;;;;;4.74;85.50;99855.03;5040920;28;20076;-59
2023/02/01 10:18:51;;;;;;;31.15;10.80;;;;;;;4.73;85.63;99850.75;5031636;28;20037;-58
2023/02/01 10:21:39;;;;;;;35.30;11.88;;;;;;;4.76;86.24;99842.38;5048766;28;20116;-58
2023/02/01 10:24:13;;;;;;;26.30;8.68;;;;;;;4.78;86.06;99836.91;5035080;28;20369;-60
2023/02/01 10:26:48;;;;;;;48.65;22.52;;;;;;;4.73;86.49;99832.16;5041837;28;20372;-58
2023/02/01 10:29:19;;;;;;;42.38;15.25;;;;;;;4.79;85.82;99833.22;5043649;28;20060;-59
2023/02/01 10:31:44;;;;;;;31.02;10.65;;;;;;;4.66;86.59;99817.97;5027720;28;20036;-57
2023/02/01 10:34:27;;;;;;;31.60;8.20;;;;;;;4.68;86.80;99818.63;5036964;28;20040;-62
2023/02/01 10:36:59;;;;;;;28.63;7.13;;;;;;;4.71;85.46;99820.88;5038649;28;20047;-58
2023/02/01 10:39:25;;;;;;;32.72;6.70;;;;;;;4.73;86.06;99816.22;5040280;28;20069;-60
2023/02/01 10:41:53;;;;;;;26.10;9.52;;;;;;;4.72;86.79;99826.03;5038326;28;20120;-58
2023/02/01 10:44:24;;;;;;;29.58;8.30;;;;;;;4.86;86.15;99826.13;5030841;28;20107;-58
2023/02/01 10:46:50;;;;;;;30.17;8.30;;;;;;;4.88;86.02;99816.97;5040540;28;20102;-60
2023/02/01 10:49:26;;;;;;;22.50;5.78;;;;;;;4.79;86.16;99830.56;5043361;28;20477;-58
2023/02/01 10:51:54;;;;;;;32.25;9.93;;;;;;;4.80;86.33;99827.72;5041805;28;20376;-60
2023/02/01 10:54:21;;;;;;;26.00;6.30;;;;;;;4.85;86.46;99816.53;5023187;28;20032;-60
2023/02/01 10:56:47;;;;;;;34.15;10.80;;;;;;;4.90;85.68;99830.88;5041472;28;20025;-57
2023/02/01 10:59:20;;;;;;;26.08;7.35;;;;;;;4.96;85.51;99818.66;5043178;28;20056;-60
2023/02/01 11:01:47;;;;;;;40.67;14.50;;;;;;;4.96;85.37;99803.53;5036770;28;20029;-59
2023/02/01 11:04:17;;;;;;;37.70;8.18;;;;;;;4.83;86.53;99797.31;5044452;28;20100;-60
2023/02/01 11:06:52;;;;;;;28.25;7.90;;;;;;;4.75;86.84;99806.22;5044435;28;20036;-59
2023/02/01 11:09:20;;;;;;;38.38;12.98;;;;;;;4.82;85.99;99812.44;5045461;28;20123;-59
2023/02/01 11:11:48;;;;;;;44.25;13.43;;;;;;;4.88;86.34;99811.66;5038413;28;20036;-59
2023/02/01 11:14:20;;;;;;;43.67;11.57;;;;;;;4.82;85.88;99809.78;5034489;28;20048;-59
2023/02/01 11:16:49;;;;;;;30.13;11.93;;;;;;;4.88;85.81;99811.66;5037210;28;20292;-59
2023/02/01 11:19:15;;;;;;;25.92;6.20;;;;;;;4.84;86.40;99798.94;5042757;28;20033;-59
2023/02/01 11:21:41;;;;;;;35.78;8.95;;;;;;;4.91;86.38;99805.94;5043559;28;20058;-59
2023/02/01 11:24:17;;;;;;;35.78;7.82;;;;;;;4.86;86.14;99802.22;5039133;28;20056;-59
2023/02/01 11:26:43;;;;;;;32.38;8.30;;;;;;;4.88;86.52;99808.19;5041336;28;20526;-60
2023/02/01 11:29:11;;;;;;;38.22;9.05;;;;;;;4.86;86.08;99803.03;5024858;28;20028;-57
2023/02/01 11:31:36;;;;;;;24.67;5.70;;;;;;;4.83;86.68;99792.81;5042888;28;20021;-58
2023/02/01 11:34:12;;;;;;;26.52;6.60;;;;;;;5.02;86.22;99791.34;5018502;28;20423;-58
2023/02/01 11:36:38;;;;;;;29.67;5.70;;;;;;;4.96;86.23;99778.81;5038874;28;20028;-58
2023/02/01 11:39:12;;;;;;;24.52;5.68;;;;;;;4.96;86.26;99778.81;5019855;28;20032;-58
2023/02/01 11:41:57;;;;;;;24.55;5.15;;;;;;;4.95;86.36;99780.66;5037385;28;20210;-58
2023/02/01 11:44:43;;;;;;;19.30;5.15;;;;;;;5.02;86.33;99785.19;5039729;28;20032;-58
2023/02/01 11:47:28;;;;;;;41.80;6.70;;;;;;;5.09;85.89;99786.91;5038771;28;20548;-57
2023/02/01 11:50:01;;;;;;;17.17;4.63;;;;;;;5.01;85.33;99772.94;5030263;28;20032;-58
2023/02/01 11:52:40;;;;;;;23.48;4.60;;;;;;;5.07;86.92;99772.16;5037252;28;20241;-57
2023/02/01 11:55:36;;;;;;;21.63;5.05;;;;;;;4.98;85.70;99774.94;5037506;28;20040;-58
2023/02/01 11:58:34;;;;;;;20.63;5.28;;;;;;;5.12;85.98;99767.09;5037060;28;20486;-61